Time;durP1;ratioP1;P1;durP2;ratioP2;P2;SDS_P1;SDS_P2;PMS_P1;PMS_P2;Temp;Humidity;BMP_temperature;BMP_pressure;BME280_temperature;BME280_humidity;BME280_pressure;Samples;Min_cycle;Max_cycle;Signal;HPM_P1;HPM_P2
2022/04/01 00:03:14;;;;;;;;;;;;;;;2.60;56.98;97778.53;8398899;28;20289;-70
2022/04/01 00:07:15;;;;;;;;;;;;;;;2.57;57.19;97789.78;8397104;28;19920;-70
2022/04/01 00:11:16;;;;;;;;;;;;;;;2.56;57.64;97780.22;8398338;28;20395;-71
2022/04/01 00:15:16;;;;;;;;;;;;;;;2.63;57.53;97777.97;8378997;28;19931;-70
2022/04/01 00:19:18;;;;;;;;;;;;;;;2.55;57.35;97770.63;8398060;28;19928;-70
2022/04/01 00:23:18;;;;;;;;;;;;;;;2.51;57.64;97761.63;8378936;28;20402;-70
2022/04/01 00:27:20;;;;;;;;;;;;;;;2.46;57.79;97772.38;8398091;28;19952;-70
2022/04/01 00:31:21;;;;;;;;;;;;;;;2.47;58.30;97768.63;8397027;28;19928;-70
2022/04/01 00:35:22;;;;;;;;;;;;;;;2.45;59.22;97765.44;8395285;28;20379;-70
2022/04/01 00:39:23;;;;;;;;;;;;;;;2.29;60.08;97764.06;8372426;28;19921;-70
2022/04/01 00:43:28;;;;;;;;;;;;;;;2.17;60.22;97769.06;8397723;28;19920;-70
2022/04/01 00:47:29;;;;;;;;;;;;;;;2.20;60.18;97779.13;8396947;28;20383;-70
2022/04/01 00:51:31;;;;;;;;;;;;;;;2.10;60.00;97775.53;8396823;28;19920;-70
2022/04/01 00:55:32;;;;;;;;;;;;;;;2.09;60.08;97768.59;8344925;28;19947;-69
2022/04/01 00:59:33;;;;;;;;;;;;;;;2.06;60.43;97763.81;8377555;28;19966;-69
2022/04/01 01:03:33;;;;;;;;;;;;;;;1.93;61.09;97775.19;8396447;28;19920;-70
2022/04/01 01:07:35;;;;;;;;;;;;;;;1.89;61.27;97774.19;8410682;28;19927;-70
2022/04/01 01:11:35;;;;;;;;;;;;;;;1.88;61.20;97761.94;8396168;28;19943;-70
2022/04/01 01:15:37;;;;;;;;;;;;;;;1.75;61.72;97753.84;8395805;28;20406;-69
2022/04/01 01:19:39;;;;;;;;;;;;;;;1.81;61.64;97766.00;8393040;28;19920;-70
2022/04/01 01:23:41;;;;;;;;;;;;;;;1.73;61.70;97759.47;8395765;28;19927;-70
2022/04/01 01:27:43;;;;;;;;;;;;;;;1.73;62.36;97770.13;8394577;28;20394;-70
2022/04/01 01:31:46;;;;;;;;;;;;;;;1.57;62.96;97771.34;8395179;28;19927;-70
2022/04/01 01:35:47;;;;;;;;;;;;;;;1.54;64.04;97763.91;8394970;28;19925;-70
2022/04/01 01:39:48;;;;;;;;;;;;;;;1.41;64.98;97756.63;8392886;28;19920;-70
2022/04/01 01:43:49;;;;;;;;;;;;;;;1.32;65.72;97763.63;8392513;28;19975;-70
2022/04/01 01:47:50;;;;;;;;;;;;;;;1.32;66.75;97742.38;8395669;28;19960;-70
2022/04/01 01:56:10;;;;;;;;;;;;;;;1.08;69.63;97747.63;8395108;28;19920;-71
2022/04/01 02:00:11;;;;;;;;;;;;;;;0.92;70.28;97749.63;8393685;28;19947;-71
2022/04/01 02:04:12;;;;;;;;;;;;;;;0.93;70.07;97751.22;8395062;28;19921;-70
2022/04/01 02:08:13;;;;;;;;;;;;;;;0.94;70.41;97747.50;8393777;28;19920;-70
2022/04/01 02:12:16;;;;;;;;;;;;;;;0.93;70.46;97745.91;8359085;28;20011;-70
2022/04/01 02:16:17;;;;;;;;;;;;;;;0.97;70.25;97746.94;8394827;28;20437;-70
2022/04/01 02:20:18;;;;;;;;;;;;;;;0.95;69.81;97742.97;8394443;28;19973;-71
2022/04/01 02:24:20;;;;;;;;;;;;;;;0.97;70.07;97741.63;8394448;28;19924;-70
2022/04/01 02:28:22;;;;;;;;;;;;;;;0.95;69.59;97743.78;8395101;28;19920;-70
2022/04/01 02:32:26;;;;;;;;;;;;;;;0.75;69.99;97738.59;8401421;28;19927;-70
2022/04/01 02:36:27;;;;;;;;;;;;;;;0.88;70.21;97748.59;8401052;28;19920;-69
2022/04/01 02:40:28;;;;;;;;;;;;;;;0.74;70.68;97745.03;8400703;28;19950;-70
2022/04/01 02:44:28;;;;;;;;;;;;;;;0.60;71.08;97741.38;8364712;28;20007;-71
2022/04/01 02:48:29;;;;;;;;;;;;;;;0.53;72.21;97748.91;8400847;28;20003;-70
2022/04/01 02:52:30;;;;;;;;;;;;;;;0.42;73.23;97746.28;8398551;28;20316;-71
2022/04/01 02:56:32;;;;;;;;;;;;;;;0.36;73.50;97742.09;8400220;28;19921;-70
2022/04/01 03:00:37;;;;;;;;;;;;;;;0.39;74.16;97741.53;8398256;28;19928;-70
2022/04/01 03:04:38;;;;;;;;;;;;;;;0.37;74.48;97750.84;8400283;28;19920;-69
2022/04/01 03:08:40;;;;;;;;;;;;;;;0.24;74.93;97754.91;8400201;28;19920;-69
2022/04/01 03:12:41;;;;;;;;;;;;;;;0.19;75.56;97754.94;8397735;28;20010;-71
2022/04/01 03:16:43;;;;;;;;;;;;;;;0.27;75.87;97749.03;8359318;28;20295;-70
2022/04/01 03:20:45;;;;;;;;;;;;;;;0.21;76.36;97750.13;8399195;28;19920;-70
2022/04/01 03:24:46;;;;;;;;;;;;;;;0.11;77.36;97750.19;8399337;28;19920;-70
2022/04/01 03:28:47;;;;;;;;;;;;;;;0.05;78.36;97755.81;8398368;28;19928;-70
2022/04/01 03:32:48;;;;;;;;;;;;;;;-0.05;79.03;97746.03;8395857;28;19921;-70
2022/04/01 03:36:49;;;;;;;;;;;;;;;-0.11;79.20;97741.84;8414093;28;20011;-70
2022/04/01 03:40:51;;;;;;;;;;;;;;;-0.12;80.25;97745.56;8397635;28;20376;-70
2022/04/01 03:44:52;;;;;;;;;;;;;;;-0.15;81.25;97735.47;8397868;28;19921;-70
2022/04/01 03:49:03;;;;;;;;;;;;;;;-0.15;81.79;97735.47;8398042;28;19920;-70
2022/04/01 03:53:04;;;;;;;;;;;;;;;-0.23;82.70;97733.38;8409853;28;20439;-69
2022/04/01 03:57:05;;;;;;;;;;;;;;;-0.32;82.60;97719.13;8397405;28;19920;-71
2022/04/01 04:01:08;;;;;;;;;;;;;;;-0.40;83.16;97732.91;8396740;28;19952;-70
2022/04/01 04:05:09;;;;;;;;;;;;;;;-0.35;83.79;97731.03;8397728;28;19920;-70
2022/04/01 04:09:10;;;;;;;;;;;;;;;-0.39;84.11;97739.81;8398480;28;19924;-70
2022/04/01 04:13:12;;;;;;;;;;;;;;;-0.40;84.30;97738.22;8396781;28;19928;-70
2022/04/01 04:17:16;;;;;;;;;;;;;;;-0.44;84.61;97753.91;8396359;28;20425;-70
2022/04/01 04:21:17;;;;;;;;;;;;;;;-0.39;85.34;97750.44;8398155;28;19924;-70
2022/04/01 04:25:20;;;;;;;;;;;;;;;-0.59;85.36;97746.78;8398274;28;19982;-70
2022/04/01 04:29:20;;;;;;;;;;;;;;;-0.70;86.13;97745.22;8359646;28;19924;-71
2022/04/01 04:33:22;;;;;;;;;;;;;;;-0.64;86.65;97746.81;8397472;28;20291;-69
2022/04/01 04:37:25;;;;;;;;;;;;;;;-0.64;87.20;97760.06;8398019;28;19920;-69
2022/04/01 04:41:25;;;;;;;;;;;;;;;-0.65;86.99;97753.16;8397406;28;19920;-70
2022/04/01 04:45:27;;;;;;;;;;;;;;;-0.58;87.07;97764.25;8411894;28;19921;-70
2022/04/01 04:49:28;;;;;;;;;;;;;;;-0.70;87.15;97766.44;8396070;28;19920;-69
2022/04/01 04:53:30;;;;;;;;;;;;;;;-0.68;87.21;97753.69;8397165;28;19966;-70
2022/04/01 04:57:31;;;;;;;;;;;;;;;-0.74;87.30;97760.06;8410999;28;20450;-70
2022/04/01 05:01:35;;;;;;;;;;;;;;;-0.76;87.72;97756.91;8360274;28;20092;-70
2022/04/01 05:05:40;;;;;;;;;;;;;;;-0.74;88.11;97760.06;8395622;28;19920;-71
2022/04/01 05:09:45;;;;;;;;;;;;;;;-0.68;87.91;97753.69;8395186;28;19931;-70
2022/04/01 05:13:49;;;;;;;;;;;;;;;-0.80;87.85;97750.53;8395709;28;20463;-70
2022/04/01 05:17:54;;;;;;;;;;;;;;;-0.69;87.98;97759.28;8395126;28;19935;-69
2022/04/01 05:22:08;;;;;;;;;;;;;;;-0.74;88.17;97765.34;8391846;28;19920;-70
2022/04/01 05:26:11;;;;;;;;;;;;;;;-0.73;87.67;97756.34;8391903;28;20011;-70
2022/04/01 05:30:16;;;;;;;;;;;;;;;-0.85;88.17;97763.81;8391839;28;19924;-70
2022/04/01 05:34:20;;;;;;;;;;;;;;;-0.82;88.31;97768.56;8390800;28;19966;-69
2022/04/01 05:38:22;;;;;;;;;;;;;;;-0.74;88.32;97768.00;8391317;28;20373;-70
2022/04/01 05:42:23;;;;;;;;;;;;;;;-0.71;88.12;97764.84;8374609;28;19920;-70
2022/04/01 05:46:24;;;;;;;;;;;;;;;-0.71;87.71;97754.22;8374896;28;19920;-70
2022/04/01 05:50:26;;;;;;;;;;;;;;;-0.74;86.98;97760.06;8391416;28;19921;-70
2022/04/01 05:54:27;;;;;;;;;;;;;;;-0.66;87.64;97772.78;8395334;28;19920;-69
2022/04/01 05:58:29;;;;;;;;;;;;;;;-0.65;86.89;97779.69;8395414;28;20016;-70
2022/04/01 06:02:35;;;;;;;;;;;;;;;-0.71;87.18;97780.75;8394349;28;20372;-70
2022/04/01 06:06:42;;;;;;;;;;;;;;;-0.70;86.90;97779.69;8394341;28;20375;-71
2022/04/01 06:10:58;;;;;;;;;;;;;;;-0.63;86.85;97793.44;8394809;28;19920;-70
2022/04/01 06:14:59;;;;;;;;;;;;;;;-0.69;86.46;97789.22;8394734;28;19966;-70
2022/04/01 06:19:18;;;;;;;;;;;;;;;-0.69;86.44;97794.53;8394501;28;20360;-70
2022/04/01 06:23:43;;;;;;;;;;;;;;;-0.64;86.69;97786.56;8394715;28;19951;-69
2022/04/01 06:27:55;;;;;;;;;;;;;;;-0.68;86.72;97790.78;8393260;28;20319;-70
2022/04/01 06:32:16;;;;;;;;;;;;;;;-0.62;86.96;97781.78;8393466;28;19927;-70
2022/04/01 06:36:18;;;;;;;;;;;;;;;-0.59;86.69;97799.81;8394050;28;19928;-70
2022/04/01 06:40:21;;;;;;;;;;;;;;;-0.63;86.35;97804.03;8392919;28;19931;-70
2022/04/01 06:44:22;;;;;;;;;;;;;;;-0.55;86.34;97805.38;8394435;28;19951;-69
2022/04/01 06:48:22;;;;;;;;;;;;;;;-0.59;86.54;97810.44;8394489;28;19928;-70
2022/04/01 06:52:24;;;;;;;;;;;;;;;-0.52;86.68;97805.63;8394286;28;19924;-70
2022/04/01 06:56:26;;;;;;;;;;;;;;;-0.47;85.79;97802.94;8394240;28;19927;-70
2022/04/01 07:00:27;;;;;;;;;;;;;;;-0.60;86.13;97803.53;8392616;28;19920;-70
2022/04/01 07:04:28;;;;;;;;;;;;;;;-0.61;86.23;97812.53;8393842;28;19920;-70
2022/04/01 07:08:28;;;;;;;;;;;;;;;-0.46;86.27;97799.25;8394038;28;20015;-69
2022/04/01 07:12:32;;;;;;;;;;;;;;;-0.26;85.93;97797.59;8392174;28;19921;-70
2022/04/01 07:16:32;;;;;;;;;;;;;;;-0.16;85.10;97808.19;8398347;28;20015;-70
2022/04/01 07:20:36;;;;;;;;;;;;;;;-0.02;84.69;97782.66;8399742;28;20326;-70
2022/04/01 07:24:37;;;;;;;;;;;;;;;0.05;84.24;97787.66;8399482;28;19950;-70
2022/04/01 07:28:38;;;;;;;;;;;;;;;0.08;83.28;97797.72;8399224;28;19921;-70
2022/04/01 07:32:40;;;;;;;;;;;;;;;0.21;83.78;97797.91;8399768;28;19926;-70
2022/04/01 07:36:41;;;;;;;;;;;;;;;0.20;82.96;97799.00;8399330;28;20318;-70
2022/04/01 07:40:42;;;;;;;;;;;;;;;0.16;83.38;97800.59;8398891;28;19924;-70
2022/04/01 07:44:43;;;;;;;;;;;;;;;0.20;83.80;97801.66;8398054;28;19921;-71
2022/04/01 07:48:43;;;;;;;;;;;;;;;0.29;83.30;97810.63;8398492;28;19924;-69
2022/04/01 07:52:44;;;;;;;;;;;;;;;0.41;82.85;97797.84;8399133;28;19920;-70
2022/04/01 07:56:45;;;;;;;;;;;;;;;0.53;82.31;97810.00;8398023;28;19927;-70
2022/04/01 08:00:46;;;;;;;;;;;;;;;0.62;81.78;97816.31;8385618;28;19927;-69
2022/04/01 08:04:47;;;;;;;;;;;;;;;0.54;81.70;97816.88;8398267;28;19931;-70
2022/04/01 08:08:48;;;;;;;;;;;;;;;0.59;81.22;97824.81;8398276;28;19925;-70
2022/04/01 08:12:49;;;;;;;;;;;;;;;0.63;81.77;97824.00;8398809;28;19920;-71
2022/04/01 08:16:49;;;;;;;;;;;;;;;0.83;81.33;97825.72;8398300;28;19920;-70
2022/04/01 08:20:50;;;;;;;;;;;;;;;0.85;80.15;97835.00;8397931;28;20031;-70
2022/04/01 08:24:51;;;;;;;;;;;;;;;0.80;80.07;97836.88;8395299;28;20387;-69
2022/04/01 08:28:52;;;;;;;;;;;;;;;0.73;80.05;97833.78;8396119;28;19966;-70
2022/04/01 08:32:53;;;;;;;;;;;;;;;0.68;79.37;97849.75;8395205;28;19921;-70
2022/04/01 08:36:56;;;;;;;;;;;;;;;0.80;79.54;97847.53;8412120;28;20311;-70
2022/04/01 08:40:57;;;;;;;;;;;;;;;0.85;79.58;97855.47;8396548;28;19921;-70
2022/04/01 08:44:58;;;;;;;;;;;;;;;0.74;79.37;97854.72;8411224;28;19921;-70
2022/04/01 08:48:59;;;;;;;;;;;;;;;0.79;79.55;97851.28;8396534;28;19921;-69
2022/04/01 08:53:00;;;;;;;;;;;;;;;0.84;79.33;97853.91;8396959;28;19920;-70
2022/04/01 08:57:02;;;;;;;;;;;;;;;1.04;79.16;97859.06;8410983;28;19924;-70
2022/04/01 09:01:03;;;;;;;;;;;;;;;1.10;78.25;97863.28;8396589;28;19931;-70
2022/04/01 09:05:04;;;;;;;;;;;;;;;1.05;78.07;97860.66;8396516;28;20299;-70
2022/04/01 09:09:05;;;;;;;;;;;;;;;1.09;78.49;97861.69;8410022;28;19927;-70
2022/04/01 09:13:06;;;;;;;;;;;;;;;1.09;78.35;97867.00;8396506;28;19924;-71
2022/04/01 09:17:07;;;;;;;;;;;;;;;1.00;77.68;97868.69;8396551;28;20406;-70
2022/04/01 09:21:10;;;;;;;;;;;;;;;1.15;77.48;97865.91;8410415;28;19920;-71
2022/04/01 09:25:14;;;;;;;;;;;;;;;1.14;77.18;97869.63;8396025;28;20017;-70
2022/04/01 09:29:16;;;;;;;;;;;;;;;1.24;76.90;97869.53;8394760;28;19921;-70
2022/04/01 09:33:16;;;;;;;;;;;;;;;1.36;76.54;97876.38;8391739;28;19920;-70
2022/04/01 09:37:17;;;;;;;;;;;;;;;1.22;76.37;97877.00;8394215;28;20019;-69
2022/04/01 09:41:19;;;;;;;;;;;;;;;1.24;76.57;97880.19;8392417;28;19959;-70
2022/04/01 09:45:30;;;;;;;;;;;;;;;1.12;76.27;97882.38;8394588;28;19920;-71
2022/04/01 09:49:33;;;;;;;;;;;;;;;1.11;76.55;97886.13;8395239;28;20402;-70
2022/04/01 09:53:35;;;;;;;;;;;;;;;1.06;76.44;97878.19;8394658;28;19963;-70
2022/04/01 09:57:36;;;;;;;;;;;;;;;1.11;76.40;97891.44;8387399;28;19920;-69
2022/04/01 10:01:39;;;;;;;;;;;;;;;1.20;76.28;97884.47;8381008;28;19974;-70
2022/04/01 10:05:40;;;;;;;;;;;;;;;1.20;76.35;97884.47;8394317;28;20147;-69
2022/04/01 10:09:43;;;;;;;;;;;;;;;1.10;75.78;97884.56;8392650;28;20366;-70
2022/04/01 10:13:44;;;;;;;;;;;;;;;1.14;76.33;97874.94;8393455;28;19927;-70
2022/04/01 10:17:45;;;;;;;;;;;;;;;1.20;76.34;97884.47;8394573;28;20395;-70
2022/04/01 10:21:46;;;;;;;;;;;;;;;1.21;75.61;97870.13;8426049;28;19924;-69
2022/04/01 10:25:51;;;;;;;;;;;;;;;1.28;75.60;97875.88;8394360;28;20403;-70
2022/04/01 10:29:54;;;;;;;;;;;;;;;1.42;75.42;97869.94;8426924;28;19920;-70
2022/04/01 10:34:15;;;;;;;;;;;;;;;1.51;74.48;97873.56;8394198;28;19920;-70
2022/04/01 10:38:17;;;;;;;;;;;;;;;1.50;74.79;97882.63;8394276;28;19920;-69
2022/04/01 10:42:23;;;;;;;;;;;;;;;1.56;74.49;97876.19;8394447;28;19926;-70
2022/04/01 10:46:24;;;;;;;;;;;;;;;1.54;73.78;97878.31;8394506;28;19920;-70
2022/04/01 10:54:45;;;;;;;;;;;;;;;1.73;73.17;97881.91;8395902;28;20390;-69
2022/04/01 10:59:00;;;;;;;;;;;;;;;1.82;73.28;97890.06;8399737;28;19938;-70
2022/04/01 11:03:20;;;;;;;;;;;;;;;1.93;72.50;97881.69;8400102;28;19921;-70
2022/04/01 11:07:21;;;;;;;;;;;;;;;2.08;72.52;97884.19;8410317;28;20415;-70
2022/04/01 11:11:22;;;;;;;;;;;;;;;2.14;72.06;97887.59;8399152;28;20011;-70
2022/04/01 11:15:24;;;;;;;;;;;;;;;2.07;71.70;97893.25;8400211;28;20003;-71
2022/04/01 11:19:28;;;;;;;;;;;;;;;2.03;72.04;97891.44;8399929;28;20342;-70
2022/04/01 11:23:28;;;;;;;;;;;;;;;2.08;72.21;97889.50;8400003;28;19927;-71
2022/04/01 11:27:30;;;;;;;;;;;;;;;2.15;72.51;97881.19;8399834;28;20376;-71
2022/04/01 11:31:31;;;;;;;;;;;;;;;2.16;72.25;97895.31;8381176;28;20368;-73
2022/04/01 11:35:36;;;;;;;;;;;;;;;2.15;72.57;97893.72;8364040;28;20373;-70
2022/04/01 11:39:37;;;;;;;;;;;;;;;2.27;72.90;97891.44;8413683;28;19921;-70
2022/04/01 11:43:39;;;;;;;;;;;;;;;2.27;72.38;97886.13;8413841;28;19927;-70
2022/04/01 11:47:43;;;;;;;;;;;;;;;2.42;72.46;97877.94;8398182;28;20364;-70
2022/04/01 11:51:44;;;;;;;;;;;;;;;2.61;71.47;97873.41;8362426;28;19920;-71
2022/04/01 11:55:46;;;;;;;;;;;;;;;2.58;71.33;97871.34;8379947;28;19928;-71
2022/04/01 11:59:46;;;;;;;;;;;;;;;2.70;71.11;97868.22;8397545;28;20017;-70
2022/04/01 12:03:47;;;;;;;;;;;;;;;2.89;70.95;97867.19;8397363;28;20026;-70
2022/04/01 12:12:14;;;;;;;;;;;;;;;3.23;69.36;97866.13;8397105;28;19921;-71
2022/04/01 12:16:16;;;;;;;;;;;;;;;3.32;69.24;97859.06;8397923;28;20261;-70
2022/04/01 12:20:17;;;;;;;;;;;;;;;3.35;68.43;97850.47;8398142;28;20303;-70
2022/04/01 12:24:18;;;;;;;;;;;;;;;3.67;68.03;97850.44;8396186;28;19927;-70
2022/04/01 12:28:20;;;;;;;;;;;;;;;3.92;67.48;97851.06;8397975;28;19921;-71
2022/04/01 12:32:20;;;;;;;;;;;;;;;3.91;66.87;97849.50;8396584;28;20024;-71
2022/04/01 12:36:29;;;;;;;;;;;;;;;4.13;66.51;97846.91;8393954;28;19924;-71
2022/04/01 12:40:53;;;;;;;;;;;;;;;4.31;66.20;97850.56;8412483;28;20049;-71
2022/04/01 12:44:54;;;;;;;;;;;;;;;4.40;63.42;97846.91;8360695;28;19928;-71
2022/04/01 12:48:56;;;;;;;;;;;;;;;4.30;56.02;97847.09;8360534;28;19948;-70
2022/04/01 12:53:14;;;;;;;;;;;;;;;4.09;55.27;97851.28;8343920;28;19943;-70
2022/04/01 12:57:16;;;;;;;;;;;;;;;4.05;55.93;97860.97;8343936;28;19927;-70
2022/04/01 13:01:21;;;;;;;;;;;;;;;3.92;55.83;97856.41;8343246;28;19932;-70
2022/04/01 13:05:21;;;;;;;;;;;;;;;3.83;55.24;97854.44;8359180;28;20342;-69
2022/04/01 13:09:25;;;;;;;;;;;;;;;3.78;56.32;97851.84;8359646;28;19956;-70
2022/04/01 13:13:32;;;;;;;;;;;;;;;3.69;55.37;97848.28;8342156;28;20041;-72
2022/04/01 13:17:52;;;;;;;;;;;;;;;3.73;52.77;97854.59;8359204;28;20011;-70
2022/04/01 13:21:53;;;;;;;;;;;;;;;3.68;53.63;97857.38;8362120;28;20341;-70
2022/04/01 13:25:54;;;;;;;;;;;;;;;3.75;53.32;97863.09;8381470;28;20022;-70
2022/04/01 13:29:55;;;;;;;;;;;;;;;3.80;53.88;97871.06;8390812;28;19924;-70
2022/04/01 13:33:56;;;;;;;;;;;;;;;3.82;52.34;97868.84;8395418;28;20296;-70
2022/04/01 13:37:57;;;;;;;;;;;;;;;3.70;52.53;97876.53;8396445;28;20011;-70
2022/04/01 13:41:58;;;;;;;;;;;;;;;3.73;53.72;97865.28;8394326;28;20019;-71
2022/04/01 13:45:58;;;;;;;;;;;;;;;3.81;53.59;97867.28;8395799;28;19920;-70
2022/04/01 13:50:00;;;;;;;;;;;;;;;3.97;54.45;97858.97;8393200;28;20019;-70
2022/04/01 13:54:01;;;;;;;;;;;;;;;4.05;53.44;97860.97;8393364;28;19924;-71
2022/04/01 13:58:02;;;;;;;;;;;;;;;4.05;52.94;97851.09;8393277;28;20426;-70
2022/04/01 14:02:02;;;;;;;;;;;;;;;4.16;50.90;97849.00;8395030;28;19952;-70
2022/04/01 14:06:03;;;;;;;;;;;;;;;4.07;51.13;97856.13;8394873;28;20287;-70
2022/04/01 14:10:04;;;;;;;;;;;;;;;4.07;50.59;97854.22;8395264;28;19927;-70
2022/04/01 14:14:06;;;;;;;;;;;;;;;4.04;50.72;97840.69;8392966;28;19922;-70
2022/04/01 14:18:07;;;;;;;;;;;;;;;4.08;50.70;97855.03;8394156;28;20349;-70
2022/04/01 14:22:08;;;;;;;;;;;;;;;4.17;51.03;97861.28;8376281;28;19920;-70
2022/04/01 14:26:08;;;;;;;;;;;;;;;4.23;49.74;97846.72;8394567;28;20307;-70
2022/04/01 14:30:17;;;;;;;;;;;;;;;4.21;49.40;97849.69;8392305;28;19920;-70
2022/04/01 14:34:18;;;;;;;;;;;;;;;4.13;47.19;97846.91;8394293;28;19924;-70
2022/04/01 14:38:21;;;;;;;;;;;;;;;4.08;48.08;97863.03;8394578;28;20007;-70
2022/04/01 14:42:22;;;;;;;;;;;;;;;4.07;47.51;97864.91;8394340;28;19920;-70
2022/04/01 14:46:23;;;;;;;;;;;;;;;4.11;46.92;97865.13;8394392;28;19927;-71
2022/04/01 14:50:27;;;;;;;;;;;;;;;4.07;47.30;97866.81;8375553;28;19955;-70
2022/04/01 14:54:28;;;;;;;;;;;;;;;3.99;46.70;97873.63;8394249;28;19966;-70
2022/04/01 14:58:31;;;;;;;;;;;;;;;4.04;45.57;97859.38;8393646;28;19920;-70
2022/04/01 15:02:37;;;;;;;;;;;;;;;4.07;45.26;97869.50;8392061;28;19927;-71
2022/04/01 15:06:39;;;;;;;;;;;;;;;4.03;45.53;97873.81;8389769;28;20431;-69
2022/04/01 15:10:40;;;;;;;;;;;;;;;4.00;46.12;97869.88;8375579;28;19921;-70
2022/04/01 15:14:41;;;;;;;;;;;;;;;4.09;45.39;97883.34;8370824;28;19925;-70
2022/04/01 15:18:42;;;;;;;;;;;;;;;4.04;45.14;97878.09;8360518;28;20364;-70
2022/04/01 15:22:43;;;;;;;;;;;;;;;4.00;44.92;97885.91;8366451;28;20009;-72
2022/04/01 15:26:44;;;;;;;;;;;;;;;4.02;45.70;97888.28;8378141;28;20322;-70
2022/04/01 15:30:45;;;;;;;;;;;;;;;3.94;46.24;97880.94;8385496;28;19924;-70
2022/04/01 15:34:46;;;;;;;;;;;;;;;3.97;45.41;97885.69;8384512;28;20338;-71
2022/04/01 15:38:51;;;;;;;;;;;;;;;3.98;45.78;97881.94;8398604;28;19931;-70
2022/04/01 15:42:52;;;;;;;;;;;;;;;4.01;45.85;97890.16;8398757;28;19967;-70
2022/04/01 15:46:53;;;;;;;;;;;;;;;4.00;46.35;97901.13;8398750;28;20406;-69
2022/04/01 15:50:55;;;;;;;;;;;;;;;4.05;44.77;97899.16;8396878;28;19927;-70
2022/04/01 15:54:56;;;;;;;;;;;;;;;4.00;44.53;97907.28;8397805;28;19921;-70
2022/04/01 15:58:57;;;;;;;;;;;;;;;3.93;45.01;97911.41;8398938;28;19920;-70
2022/04/01 16:03:02;;;;;;;;;;;;;;;3.91;44.65;97908.25;8396729;28;19926;-69
2022/04/01 16:07:07;;;;;;;;;;;;;;;3.93;44.53;97906.84;8397272;28;19921;-70
2022/04/01 16:11:08;;;;;;;;;;;;;;;3.97;44.90;97907.06;8397978;28;20007;-70
2022/04/01 16:15:10;;;;;;;;;;;;;;;3.97;44.98;97933.75;8396091;28;19924;-70
2022/04/01 16:19:10;;;;;;;;;;;;;;;3.95;44.19;97925.28;8397283;28;20401;-70
2022/04/01 16:23:12;;;;;;;;;;;;;;;3.90;45.13;97928.03;8398070;28;20022;-70
2022/04/01 16:27:12;;;;;;;;;;;;;;;3.89;45.88;97926.44;8397841;28;19921;-70
2022/04/01 16:31:14;;;;;;;;;;;;;;;3.93;46.36;97932.78;8397653;28;20315;-69
2022/04/01 16:35:14;;;;;;;;;;;;;;;3.91;46.71;97940.31;8396305;28;19938;-70
2022/04/01 16:39:15;;;;;;;;;;;;;;;3.83;47.06;97945.22;8412091;28;20327;-70
2022/04/01 16:43:16;;;;;;;;;;;;;;;3.76;47.37;97958.16;8409716;28;19990;-69
2022/04/01 16:47:17;;;;;;;;;;;;;;;3.80;46.64;97961.84;8396115;28;19931;-70
2022/04/01 16:51:18;;;;;;;;;;;;;;;3.69;47.56;97960.41;8396834;28;19955;-70
2022/04/01 16:55:19;;;;;;;;;;;;;;;3.68;46.84;97969.50;8397059;28;19952;-70
2022/04/01 16:59:19;;;;;;;;;;;;;;;3.67;46.39;97967.91;8397161;28;20019;-69
2022/04/01 17:03:20;;;;;;;;;;;;;;;3.65;46.39;97980.75;8396660;28;19921;-69
2022/04/01 17:16:03;;;;;;;;;;;;;;;3.58;44.41;97980.34;8396357;28;20015;-70
2022/04/01 17:20:05;;;;;;;;;;;;;;;3.54;45.10;97990.03;8394340;28;20391;-70
2022/04/01 17:24:08;;;;;;;;;;;;;;;3.45;44.63;97991.75;8396005;28;19924;-70
2022/04/01 17:28:09;;;;;;;;;;;;;;;3.46;44.85;97988.00;8392741;28;19924;-70
2022/04/01 17:32:16;;;;;;;;;;;;;;;3.44;44.57;97995.50;8393089;28;20430;-70
2022/04/01 17:36:19;;;;;;;;;;;;;;;3.38;45.15;98002.00;8393833;28;19928;-70
2022/04/01 17:40:20;;;;;;;;;;;;;;;3.38;44.48;98012.69;8393796;28;20388;-70
2022/04/01 17:44:21;;;;;;;;;;;;;;;3.33;45.31;98018.09;8393933;28;19920;-70
2022/04/01 17:48:22;;;;;;;;;;;;;;;3.27;46.18;98032.56;8389454;28;19920;-69
2022/04/01 17:52:24;;;;;;;;;;;;;;;3.24;46.49;98043.81;8388186;28;19940;-69
2022/04/01 17:56:25;;;;;;;;;;;;;;;3.27;45.79;98032.56;8369186;28;20016;-69
2022/04/01 18:00:26;;;;;;;;;;;;;;;3.19;45.81;98038.53;8406614;28;19921;-69
2022/04/01 18:04:27;;;;;;;;;;;;;;;3.30;45.51;98037.31;8390904;28;20392;-70
2022/04/01 18:08:30;;;;;;;;;;;;;;;3.24;45.62;98033.13;8407140;28;19973;-70
2022/04/01 18:12:35;;;;;;;;;;;;;;;3.28;45.34;98050.16;8390829;28;19920;-70
2022/04/01 18:16:36;;;;;;;;;;;;;;;3.22;45.53;98051.31;8390571;28;20347;-70
2022/04/01 18:20:37;;;;;;;;;;;;;;;3.17;45.55;98043.38;8394749;28;20352;-69
2022/04/01 18:29:03;;;;;;;;;;;;;;;3.26;44.98;98063.00;8392701;28;20376;-70
2022/04/01 18:33:06;;;;;;;;;;;;;;;3.23;45.16;98068.88;8409864;28;19920;-70
2022/04/01 18:37:07;;;;;;;;;;;;;;;3.24;45.78;98065.16;8391953;28;19963;-70
2022/04/01 18:41:08;;;;;;;;;;;;;;;3.15;46.17;98072.22;8392479;28;19920;-70
2022/04/01 18:45:09;;;;;;;;;;;;;;;3.12;45.97;98078.13;8392277;28;19920;-70
2022/04/01 18:49:10;;;;;;;;;;;;;;;3.13;46.60;98071.69;8394202;28;19927;-70
2022/04/01 18:53:11;;;;;;;;;;;;;;;3.07;46.93;98078.19;8393733;28;20014;-70
2022/04/01 18:57:12;;;;;;;;;;;;;;;3.02;47.48;98084.34;8394185;28;19921;-70
2022/04/01 19:01:15;;;;;;;;;;;;;;;2.98;48.01;98086.81;8392681;28;19927;-70
2022/04/01 19:05:21;;;;;;;;;;;;;;;2.93;47.81;98086.84;8393976;28;20480;-70
2022/04/01 19:09:39;;;;;;;;;;;;;;;2.97;48.01;98090.53;8391175;28;19920;-70
2022/04/01 19:13:40;;;;;;;;;;;;;;;3.00;47.56;98088.38;8397659;28;20015;-69
2022/04/01 19:17:41;;;;;;;;;;;;;;;2.93;47.82;98094.84;8398600;28;20015;-69
2022/04/01 19:21:42;;;;;;;;;;;;;;;2.90;48.33;98098.09;8397896;28;20031;-70
2022/04/01 19:25:43;;;;;;;;;;;;;;;2.84;48.19;98104.56;8398106;28;19920;-69
2022/04/01 19:29:44;;;;;;;;;;;;;;;2.80;47.99;98102.75;8398802;28;19926;-70
2022/04/01 19:33:46;;;;;;;;;;;;;;;2.77;47.38;98114.75;8397757;28;19932;-70
2022/04/01 19:37:52;;;;;;;;;;;;;;;2.74;47.58;98115.34;8398761;28;19928;-70
2022/04/01 19:41:55;;;;;;;;;;;;;;;2.71;48.42;98115.88;8399708;28;19920;-70
2022/04/01 19:45:59;;;;;;;;;;;;;;;2.73;47.43;98113.72;8374174;28;19920;-70
2022/04/01 19:50:03;;;;;;;;;;;;;;;2.75;47.88;98122.22;8398698;28;20451;-70
2022/04/01 19:54:04;;;;;;;;;;;;;;;2.70;47.95;98124.94;8398238;28;19926;-69
2022/04/01 19:58:06;;;;;;;;;;;;;;;2.70;47.44;98124.94;8393592;28;20276;-70
2022/04/01 20:02:09;;;;;;;;;;;;;;;2.67;48.20;98120.19;8398004;28;19970;-70
2022/04/01 20:06:10;;;;;;;;;;;;;;;2.61;48.28;98121.31;8398116;28;20352;-70
2022/04/01 20:10:11;;;;;;;;;;;;;;;2.67;47.47;98109.53;8398134;28;19927;-70
2022/04/01 20:14:12;;;;;;;;;;;;;;;2.60;47.83;98119.72;8397869;28;19921;-69
2022/04/01 20:18:14;;;;;;;;;;;;;;;2.62;47.67;98128.22;8398325;28;19920;-69
2022/04/01 20:22:18;;;;;;;;;;;;;;;2.56;47.72;98124.03;8411324;28;20254;-69
2022/04/01 20:26:19;;;;;;;;;;;;;;;2.54;48.03;98121.63;8394871;28;19920;-69
2022/04/01 20:30:23;;;;;;;;;;;;;;;2.55;48.44;98114.44;8393653;28;19942;-70
2022/04/01 20:34:24;;;;;;;;;;;;;;;2.47;47.96;98115.03;8395749;28;19949;-69
2022/04/01 20:38:25;;;;;;;;;;;;;;;2.44;48.34;98120.91;8396052;28;20391;-69
2022/04/01 20:42:26;;;;;;;;;;;;;;;2.46;48.21;98113.44;8394200;28;19979;-69
2022/04/01 20:46:27;;;;;;;;;;;;;;;2.43;48.31;98108.69;8396462;28;19927;-70
2022/04/01 20:50:28;;;;;;;;;;;;;;;2.42;48.97;98107.09;8396703;28;20007;-70
2022/04/01 20:54:29;;;;;;;;;;;;;;;2.48;48.99;98105.97;8395829;28;20341;-70
2022/04/01 20:58:29;;;;;;;;;;;;;;;2.43;48.03;98108.69;8396392;28;19927;-69
2022/04/01 21:02:30;;;;;;;;;;;;;;;2.42;48.44;98117.75;8395842;28;19927;-70
2022/04/01 21:06:31;;;;;;;;;;;;;;;2.41;48.53;98116.16;8393544;28;19924;-70
2022/04/01 21:10:32;;;;;;;;;;;;;;;2.43;48.55;98108.69;8393551;28;20029;-69
2022/04/01 21:14:33;;;;;;;;;;;;;;;2.41;48.43;98116.16;8395494;28;19925;-70
2022/04/01 21:18:34;;;;;;;;;;;;;;;2.45;47.97;98111.84;8395462;28;20341;-70
2022/04/01 21:22:39;;;;;;;;;;;;;;;2.42;48.17;98123.09;8396020;28;19920;-69
2022/04/01 21:30:59;;;;;;;;;;;;;;;2.38;48.75;98116.72;8393960;28;19966;-69
2022/04/01 21:35:00;;;;;;;;;;;;;;;2.39;49.04;98118.28;8394281;28;20449;-70
2022/04/01 21:39:01;;;;;;;;;;;;;;;2.33;48.88;98114.09;8394581;28;19930;-70
2022/04/01 21:43:05;;;;;;;;;;;;;;;2.33;48.37;98119.41;8394138;28;19921;-70
2022/04/01 21:47:06;;;;;;;;;;;;;;;2.37;47.81;98120.47;8388986;28;19964;-69